createdAt,value
2018-09-01T00:00:40.362Z,1017.44
2018-09-01T00:01:40.296Z,1017.42
2018-09-01T00:02:40.383Z,1017.48
2018-09-01T00:03:40.280Z,1017.51
2018-09-01T00:04:47.845Z,1017.51
2018-09-01T00:05:40.291Z,1017.54
2018-09-01T00:06:40.277Z,1017.57
2018-09-01T00:07:40.302Z,1017.51
2018-09-01T00:08:40.261Z,1017.54
2018-09-01T00:09:40.194Z,1017.54
2018-09-01T00:10:40.232Z,1017.55
2018-09-01T00:11:40.225Z,1017.55
2018-09-01T00:12:40.578Z,1017.55
2018-09-01T00:13:40.208Z,1017.55
2018-09-01T00:14:40.199Z,1017.54
2018-09-01T00:15:40.213Z,1017.54
2018-09-01T00:16:40.172Z,1017.56
2018-09-01T00:17:40.199Z,1017.53
2018-09-01T00:18:40.143Z,1017.55
2018-09-01T00:19:40.146Z,1017.56
2018-09-01T00:20:40.197Z,1017.56
2018-09-01T00:21:40.077Z,1017.54
2018-09-01T00:22:40.123Z,1017.55
2018-09-01T00:23:40.047Z,1017.58
2018-09-01T00:24:40.122Z,1017.59
2018-09-01T00:25:40.041Z,1017.58
2018-09-01T00:26:40.065Z,1017.58
2018-09-01T00:27:40.081Z,1017.60
2018-09-01T00:28:40.062Z,1017.61
2018-09-01T00:29:39.991Z,1017.58
2018-09-01T00:30:40.045Z,1017.56
2018-09-01T00:31:40.018Z,1017.58
2018-09-01T00:32:40.024Z,1017.59
2018-09-01T00:33:39.985Z,1017.58
2018-09-01T00:34:39.967Z,1017.59
2018-09-01T00:35:40.123Z,1017.59
2018-09-01T00:36:39.940Z,1017.59
2018-09-01T00:37:39.972Z,1017.61
2018-09-01T00:38:39.931Z,1017.58
2018-09-01T00:39:39.924Z,1017.61
2018-09-01T00:40:39.908Z,1017.57
2018-09-01T00:41:39.924Z,1017.63
2018-09-01T00:42:39.931Z,1017.61
2018-09-01T00:43:39.898Z,1017.64
2018-09-01T00:44:39.878Z,1017.67
2018-09-01T00:45:39.853Z,1017.65
2018-09-01T00:46:39.848Z,1017.66
2018-09-01T00:47:39.865Z,1017.69
2018-09-01T00:48:39.819Z,1017.69
2018-09-01T00:49:39.806Z,1017.73
2018-09-01T00:50:39.803Z,1017.69
2018-09-01T00:51:39.796Z,1017.74
2018-09-01T00:52:39.800Z,1017.74
2018-09-01T00:53:39.770Z,1017.74
2018-09-01T00:54:39.714Z,1017.74
2018-09-01T00:55:39.748Z,1017.75
2018-09-01T00:56:39.715Z,1017.72
2018-09-01T00:57:39.842Z,1017.73
2018-09-01T00:58:39.712Z,1017.70
2018-09-01T00:59:39.707Z,1017.71
2018-09-01T01:00:39.702Z,1017.74
2018-09-01T01:01:39.638Z,1017.67
2018-09-01T01:02:39.670Z,1017.68
2018-09-01T01:03:39.682Z,1017.70
2018-09-01T01:04:39.609Z,1017.73
2018-09-01T01:05:39.635Z,1017.74
2018-09-01T01:06:39.579Z,1017.71
2018-09-01T01:07:39.617Z,1017.78
2018-09-01T01:08:39.663Z,1017.76
2018-09-01T01:09:39.599Z,1017.77
2018-09-01T01:10:39.592Z,1017.78
2018-09-01T01:11:39.527Z,1017.72
2018-09-01T01:12:39.554Z,1017.69
2018-09-01T01:13:39.582Z,1017.71
2018-09-01T01:14:39.570Z,1017.72
2018-09-01T01:15:39.544Z,1017.72
2018-09-01T01:16:39.519Z,1017.72
2018-09-01T01:17:39.503Z,1017.73
2018-09-01T01:18:39.546Z,1017.76
2018-09-01T01:19:39.489Z,1017.76
2018-09-01T01:20:39.430Z,1017.76
2018-09-01T01:21:39.467Z,1017.74
2018-09-01T01:22:39.449Z,1017.77
2018-09-01T01:23:39.464Z,1017.76
2018-09-01T01:24:39.441Z,1017.78
2018-09-01T01:25:39.424Z,1017.84
2018-09-01T01:26:39.428Z,1017.81
2018-09-01T01:27:39.403Z,1017.80
2018-09-01T01:28:39.552Z,1017.80
2018-09-01T01:29:39.385Z,1017.75
2018-09-01T01:30:39.360Z,1017.76
2018-09-01T01:31:39.365Z,1017.84
2018-09-01T01:32:39.348Z,1017.79
2018-09-01T01:33:39.350Z,1017.79
2018-09-01T01:34:39.274Z,1017.81
2018-09-01T01:35:39.338Z,1017.77
2018-09-01T01:36:39.300Z,1017.82
2018-09-01T01:37:39.288Z,1017.85
2018-09-01T01:38:39.267Z,1017.87
2018-09-01T01:39:39.285Z,1017.80
2018-09-01T01:40:39.260Z,1017.82
2018-09-01T01:41:39.242Z,1017.82
2018-09-01T01:42:39.229Z,1017.86
2018-09-01T01:43:39.239Z,1017.84
2018-09-01T01:44:39.228Z,1017.84
2018-09-01T01:45:39.203Z,1017.80
2018-09-01T01:46:39.196Z,1017.86
2018-09-01T01:47:39.198Z,1017.86
2018-09-01T01:48:39.223Z,1017.86
2018-09-01T01:49:39.193Z,1017.87
2018-09-01T01:50:39.148Z,1017.89
2018-09-01T01:51:39.140Z,1017.86
2018-09-01T01:52:39.132Z,1017.86
2018-09-01T01:53:39.132Z,1017.82
2018-09-01T01:54:39.142Z,1017.85
2018-09-01T01:55:39.088Z,1017.88
2018-09-01T01:56:39.038Z,1017.83
2018-09-01T01:57:39.097Z,1017.81
2018-09-01T01:58:39.083Z,1017.85
2018-09-01T01:59:39.004Z,1017.80
2018-09-01T02:00:39.044Z,1017.78
2018-09-01T02:01:39.023Z,1017.76
2018-09-01T02:02:39.011Z,1017.81
2018-09-01T02:03:39.028Z,1017.83
2018-09-01T02:04:38.999Z,1017.80
2018-09-01T02:05:39.032Z,1017.79
2018-09-01T02:06:38.973Z,1017.80
2018-09-01T02:07:38.961Z,1017.82
2018-09-01T02:08:38.986Z,1017.83
2018-09-01T02:09:38.938Z,1017.82
2018-09-01T02:10:38.930Z,1017.81
2018-09-01T02:11:38.910Z,1017.81
2018-09-01T02:12:38.906Z,1017.83
2018-09-01T02:13:38.922Z,1017.80
2018-09-01T02:14:38.882Z,1017.84
2018-09-01T02:15:38.881Z,1017.84
2018-09-01T02:16:38.858Z,1017.85
2018-09-01T02:17:38.855Z,1017.88
2018-09-01T02:18:38.858Z,1017.85
2018-09-01T02:19:38.843Z,1017.84
2018-09-01T02:20:38.819Z,1017.82
2018-09-01T02:21:38.833Z,1017.87
2018-09-01T02:22:38.797Z,1017.86
2018-09-01T02:23:38.812Z,1017.89
2018-09-01T02:24:38.766Z,1017.89
2018-09-01T02:25:38.759Z,1017.88
2018-09-01T02:26:38.784Z,1017.87
2018-09-01T02:27:38.975Z,1017.88
2018-09-01T02:28:38.739Z,1017.88
2018-09-01T02:29:38.762Z,1017.86
2018-09-01T02:30:38.700Z,1017.88
2018-09-01T02:31:38.657Z,1017.87
2018-09-01T02:32:38.694Z,1017.88
2018-09-01T02:33:38.686Z,1017.89
2018-09-01T02:34:38.687Z,1017.88
2018-09-01T02:35:38.622Z,1017.86
2018-09-01T02:36:38.613Z,1017.90
2018-09-01T02:37:38.593Z,1017.86
2018-09-01T02:38:38.632Z,1017.84
2018-09-01T02:39:38.629Z,1017.88
2018-09-01T02:40:38.593Z,1017.90
2018-09-01T02:41:38.595Z,1017.87
2018-09-01T02:42:38.572Z,1017.90
2018-09-01T02:43:38.565Z,1017.93
2018-09-01T02:44:38.549Z,1017.94
2018-09-01T02:45:38.546Z,1017.92
2018-09-01T02:46:38.574Z,1017.96
2018-09-01T02:47:38.604Z,1017.95
2018-09-01T02:48:38.529Z,1017.98
2018-09-01T02:49:38.506Z,1017.92
2018-09-01T02:50:38.486Z,1018.00
2018-09-01T02:51:38.469Z,1017.95
2018-09-01T02:52:38.473Z,1018.00
2018-09-01T02:53:38.449Z,1017.99
2018-09-01T02:54:38.399Z,1017.97
2018-09-01T02:55:38.449Z,1017.98
2018-09-01T02:56:38.462Z,1018.01
2018-09-01T02:57:38.414Z,1018.01
2018-09-01T02:58:38.425Z,1017.98
2018-09-01T02:59:38.410Z,1018.05
2018-09-01T03:00:38.391Z,1017.99
2018-09-01T03:01:38.368Z,1018.04
2018-09-01T03:02:38.350Z,1018.02
2018-09-01T03:03:38.318Z,1018.02
2018-09-01T03:04:38.350Z,1018.02
2018-09-01T03:05:38.603Z,1018.03
2018-09-01T03:06:38.312Z,1018.01
2018-09-01T03:07:38.302Z,1018.08
2018-09-01T03:08:38.289Z,1018.08
2018-09-01T03:09:38.276Z,1018.12
2018-09-01T03:10:38.288Z,1018.07
2018-09-01T03:11:38.256Z,1018.08
2018-09-01T03:12:38.248Z,1018.15
2018-09-01T03:13:38.241Z,1018.10
2018-09-01T03:14:38.235Z,1018.13
2018-09-01T03:15:38.263Z,1018.14
2018-09-01T03:16:38.203Z,1018.08
2018-09-01T03:17:38.180Z,1018.10
2018-09-01T03:18:38.184Z,1018.12
2018-09-01T03:19:38.123Z,1018.11
2018-09-01T03:20:38.176Z,1018.12
2018-09-01T03:21:38.143Z,1018.12
2018-09-01T03:22:38.085Z,1018.11
2018-09-01T03:23:38.126Z,1018.10
2018-09-01T03:24:38.074Z,1018.13
2018-09-01T03:25:38.126Z,1018.10
2018-09-01T03:26:38.095Z,1018.10
2018-09-01T03:27:38.080Z,1018.06
2018-09-01T03:28:38.071Z,1018.14
2018-09-01T03:29:38.010Z,1018.12
2018-09-01T03:30:38.200Z,1018.12
2018-09-01T03:31:38.044Z,1018.18
2018-09-01T03:32:38.025Z,1018.19
2018-09-01T03:33:38.013Z,1018.19
2018-09-01T03:34:37.963Z,1018.16
2018-09-01T03:35:38.016Z,1018.20
2018-09-01T03:36:37.992Z,1018.18
2018-09-01T03:37:37.973Z,1018.18
2018-09-01T03:38:37.960Z,1018.15
2018-09-01T03:39:37.973Z,1018.16
2018-09-01T03:40:38.082Z,1018.15
2018-09-01T03:41:37.901Z,1018.19
2018-09-01T03:42:37.924Z,1018.21
2018-09-01T03:43:37.914Z,1018.18
2018-09-01T03:44:37.902Z,1018.17
2018-09-01T03:45:37.911Z,1018.17
2018-09-01T03:46:37.854Z,1018.14
2018-09-01T03:47:37.893Z,1018.17
2018-09-01T03:48:37.854Z,1018.18
2018-09-01T03:49:37.855Z,1018.20
2018-09-01T03:50:37.832Z,1018.18
2018-09-01T03:51:37.845Z,1018.18
2018-09-01T03:52:37.824Z,1018.21
2018-09-01T03:53:37.798Z,1018.22
2018-09-01T03:54:37.788Z,1018.21
2018-09-01T03:55:37.802Z,1018.20
2018-09-01T03:56:37.763Z,1018.25
2018-09-01T03:57:37.769Z,1018.22
2018-09-01T03:58:37.703Z,1018.26
2018-09-01T03:59:37.739Z,1018.24
2018-09-01T04:00:37.692Z,1018.28
2018-09-01T04:01:37.704Z,1018.23
2018-09-01T04:02:37.657Z,1018.19
2018-09-01T04:03:37.713Z,1018.22
2018-09-01T04:04:37.678Z,1018.23
2018-09-01T04:05:37.694Z,1018.27
2018-09-01T04:06:37.653Z,1018.27
2018-09-01T04:07:37.646Z,1018.31
2018-09-01T04:08:37.634Z,1018.29
2018-09-01T04:09:37.628Z,1018.31
2018-09-01T04:10:37.635Z,1018.38
2018-09-01T04:11:37.595Z,1018.33
2018-09-01T04:12:37.597Z,1018.34
2018-09-01T04:13:37.577Z,1018.31
2018-09-01T04:14:37.567Z,1018.36
2018-09-01T04:15:37.590Z,1018.35
2018-09-01T04:16:37.517Z,1018.34
2018-09-01T04:17:37.535Z,1018.33
2018-09-01T04:18:37.529Z,1018.38
2018-09-01T04:19:37.516Z,1018.35
2018-09-01T04:20:37.527Z,1018.36
2018-09-01T04:21:44.550Z,1018.38
2018-09-01T04:22:37.488Z,1018.41
2018-09-01T04:23:37.470Z,1018.44
2018-09-01T04:24:37.459Z,1018.41
2018-09-01T04:25:37.453Z,1018.46
2018-09-01T04:26:37.457Z,1018.48
2018-09-01T04:27:37.388Z,1018.48
2018-09-01T04:28:37.426Z,1018.53
2018-09-01T04:29:37.359Z,1018.54
2018-09-01T04:30:37.388Z,1018.52
2018-09-01T04:31:37.414Z,1018.52
2018-09-01T04:32:37.368Z,1018.52
2018-09-01T04:33:37.490Z,1018.50
2018-09-01T04:34:37.353Z,1018.53
2018-09-01T04:35:37.340Z,1018.55
2018-09-01T04:36:37.373Z,1018.54
2018-09-01T04:37:37.322Z,1018.55
2018-09-01T04:38:37.307Z,1018.57
2018-09-01T04:39:37.254Z,1018.62
2018-09-01T04:40:37.255Z,1018.59
2018-09-01T04:41:37.300Z,1018.59
2018-09-01T04:42:37.271Z,1018.57
2018-09-01T04:43:37.294Z,1018.61
2018-09-01T04:44:37.240Z,1018.61
2018-09-01T04:45:37.234Z,1018.57
2018-09-01T04:46:37.245Z,1018.61
2018-09-01T04:47:37.210Z,1018.59
2018-09-01T04:48:37.202Z,1018.61
2018-09-01T04:49:37.189Z,1018.65
2018-09-01T04:50:37.176Z,1018.65
2018-09-01T04:51:37.197Z,1018.66
2018-09-01T04:52:37.162Z,1018.63
2018-09-01T04:53:37.145Z,1018.64
2018-09-01T04:54:37.144Z,1018.64
2018-09-01T04:55:37.082Z,1018.68
2018-09-01T04:56:37.092Z,1018.64
2018-09-01T04:57:37.082Z,1018.65
2018-09-01T04:58:37.059Z,1018.67
2018-09-01T04:59:37.078Z,1018.63
2018-09-01T05:00:37.070Z,1018.68
2018-09-01T05:01:37.085Z,1018.70
2018-09-01T05:02:37.047Z,1018.69
2018-09-01T05:03:37.034Z,1018.71
2018-09-01T05:04:37.022Z,1018.72
2018-09-01T05:05:37.010Z,1018.74
2018-09-01T05:06:37.041Z,1018.71
2018-09-01T05:07:37.008Z,1018.73
2018-09-01T05:08:36.993Z,1018.77
2018-09-01T05:09:36.932Z,1018.75
2018-09-01T05:10:36.958Z,1018.72
2018-09-01T05:11:37.022Z,1018.74
2018-09-01T05:12:36.942Z,1018.72
2018-09-01T05:13:36.926Z,1018.74
2018-09-01T05:14:36.868Z,1018.70
2018-09-01T05:15:36.901Z,1018.76
2018-09-01T05:16:37.160Z,1018.81
2018-09-01T05:17:36.880Z,1018.81
2018-09-01T05:18:36.867Z,1018.81
2018-09-01T05:19:36.818Z,1018.82
2018-09-01T05:20:36.850Z,1018.84
2018-09-01T05:21:36.877Z,1018.87
2018-09-01T05:22:36.826Z,1018.87
2018-09-01T05:23:36.821Z,1018.92
2018-09-01T05:24:36.806Z,1018.90
2018-09-01T05:25:36.793Z,1018.95
2018-09-01T05:26:36.936Z,1018.94
2018-09-01T05:27:36.775Z,1018.97
2018-09-01T05:28:36.755Z,1018.96
2018-09-01T05:29:36.755Z,1018.97
2018-09-01T05:30:36.739Z,1018.93
2018-09-01T05:31:36.754Z,1018.90
2018-09-01T05:32:36.677Z,1018.90
2018-09-01T05:33:36.707Z,1018.89
2018-09-01T05:34:36.700Z,1018.88
2018-09-01T05:35:36.692Z,1018.90
2018-09-01T05:36:36.943Z,1018.89
2018-09-01T05:37:36.669Z,1018.91
2018-09-01T05:38:36.606Z,1018.91
2018-09-01T05:39:36.641Z,1018.92
2018-09-01T05:40:36.623Z,1018.93
2018-09-01T05:41:36.602Z,1018.93
2018-09-01T05:42:36.623Z,1018.91
2018-09-01T05:43:36.604Z,1018.93
2018-09-01T05:44:36.598Z,1018.87
2018-09-01T05:45:36.577Z,1018.88
2018-09-01T05:46:36.610Z,1018.86
2018-09-01T05:47:36.554Z,1018.88
2018-09-01T05:48:36.541Z,1018.92
2018-09-01T05:49:36.546Z,1018.88
2018-09-01T05:50:36.526Z,1018.89
2018-09-01T05:51:36.484Z,1018.95
2018-09-01T05:52:36.496Z,1018.93
2018-09-01T05:53:36.435Z,1018.96
2018-09-01T05:54:36.468Z,1018.95
2018-09-01T05:55:36.469Z,1019.02
2018-09-01T05:56:36.489Z,1018.97
2018-09-01T05:57:36.437Z,1018.98
2018-09-01T05:58:36.422Z,1019.00
2018-09-01T05:59:36.384Z,1019.00
2018-09-01T06:00:36.448Z,1019.02
2018-09-01T06:01:36.402Z,1019.00
2018-09-01T06:02:36.426Z,1019.02
2018-09-01T06:03:36.374Z,1018.98
2018-09-01T06:04:36.372Z,1018.96
2018-09-01T06:05:36.351Z,1019.03
2018-09-01T06:06:36.356Z,1018.99
2018-09-01T06:07:36.366Z,1019.00
2018-09-01T06:08:36.315Z,1019.01
2018-09-01T06:09:36.315Z,1019.01
2018-09-01T06:10:36.295Z,1019.07
2018-09-01T06:11:36.246Z,1019.09
2018-09-01T06:12:36.317Z,1019.12
2018-09-01T06:13:36.275Z,1019.05
2018-09-01T06:14:36.251Z,1019.11
2018-09-01T06:15:36.247Z,1019.10
2018-09-01T06:16:36.230Z,1019.15
2018-09-01T06:17:36.281Z,1019.20
2018-09-01T06:18:36.243Z,1019.20
2018-09-01T06:19:36.205Z,1019.19
2018-09-01T06:20:36.186Z,1019.25
2018-09-01T06:21:36.177Z,1019.25
2018-09-01T06:22:36.183Z,1019.27
2018-09-01T06:23:36.128Z,1019.28
2018-09-01T06:24:36.161Z,1019.27
2018-09-01T06:25:36.192Z,1019.29
2018-09-01T06:26:36.121Z,1019.24
2018-09-01T06:27:36.175Z,1019.30
2018-09-01T06:28:36.104Z,1019.28
2018-09-01T06:29:36.117Z,1019.32
2018-09-01T06:30:36.091Z,1019.27
2018-09-01T06:31:36.089Z,1019.25
2018-09-01T06:32:36.095Z,1019.27
2018-09-01T06:33:36.090Z,1019.26
2018-09-01T06:34:36.050Z,1019.27
2018-09-01T06:35:36.047Z,1019.31
2018-09-01T06:36:36.041Z,1019.29
2018-09-01T06:37:36.139Z,1019.30
2018-09-01T06:38:36.006Z,1019.32
2018-09-01T06:39:35.942Z,1019.33
2018-09-01T06:40:35.976Z,1019.38
2018-09-01T06:41:36.035Z,1019.32
2018-09-01T06:42:35.972Z,1019.37
2018-09-01T06:43:35.950Z,1019.38
2018-09-01T06:44:35.930Z,1019.39
2018-09-01T06:45:35.927Z,1019.42
2018-09-01T06:46:35.907Z,1019.43
2018-09-01T06:47:35.885Z,1019.40
2018-09-01T06:48:35.887Z,1019.47
2018-09-01T06:49:35.893Z,1019.43
2018-09-01T06:50:35.874Z,1019.46
2018-09-01T06:51:35.847Z,1019.48
2018-09-01T06:52:36.054Z,1019.51
2018-09-01T06:53:35.830Z,1019.50
2018-09-01T06:54:35.828Z,1019.49
2018-09-01T06:55:35.818Z,1019.48
2018-09-01T06:56:35.815Z,1019.48
2018-09-01T06:57:35.817Z,1019.50
2018-09-01T06:58:35.784Z,1019.50
2018-09-01T06:59:35.795Z,1019.43
2018-09-01T07:00:35.763Z,1019.47
2018-09-01T07:01:35.759Z,1019.43
2018-09-01T07:02:35.720Z,1019.43
2018-09-01T07:03:35.733Z,1019.46
2018-09-01T07:04:35.718Z,1019.43
2018-09-01T07:05:35.715Z,1019.44
2018-09-01T07:06:35.709Z,1019.46
2018-09-01T07:07:35.706Z,1019.51
2018-09-01T07:08:35.698Z,1019.49
2018-09-01T07:09:35.621Z,1019.53
2018-09-01T07:10:35.674Z,1019.45
2018-09-01T07:11:35.647Z,1019.43
2018-09-01T07:12:35.625Z,1019.48
2018-09-01T07:13:35.641Z,1019.48
2018-09-01T07:14:35.625Z,1019.48
2018-09-01T07:15:35.603Z,1019.51
2018-09-01T07:16:35.583Z,1019.54
2018-09-01T07:17:35.590Z,1019.51
2018-09-01T07:18:35.603Z,1019.50
2018-09-01T07:19:35.559Z,1019.54
2018-09-01T07:20:35.571Z,1019.53
2018-09-01T07:21:35.557Z,1019.52
2018-09-01T07:22:35.528Z,1019.54
2018-09-01T07:23:35.514Z,1019.58
2018-09-01T07:24:35.499Z,1019.60
2018-09-01T07:25:35.493Z,1019.55
2018-09-01T07:26:35.490Z,1019.55
2018-09-01T07:27:35.467Z,1019.56
2018-09-01T07:28:35.456Z,1019.55
2018-09-01T07:29:35.465Z,1019.60
2018-09-01T07:30:35.494Z,1019.58
2018-09-01T07:31:35.800Z,1019.54
2018-09-01T07:32:35.491Z,1019.51
2018-09-01T07:33:35.437Z,1019.49
2018-09-01T07:34:35.410Z,1019.50
2018-09-01T07:35:35.421Z,1019.48
2018-09-01T07:36:35.388Z,1019.47
2018-09-01T07:37:35.384Z,1019.51
2018-09-01T07:38:35.460Z,1019.50
2018-09-01T07:39:35.356Z,1019.52
2018-09-01T07:40:35.335Z,1019.55
2018-09-01T07:41:35.330Z,1019.53
2018-09-01T07:42:35.393Z,1019.52
2018-09-01T07:43:35.331Z,1019.57
2018-09-01T07:44:35.299Z,1019.60
2018-09-01T07:45:35.286Z,1019.64
2018-09-01T07:46:35.266Z,1019.65
2018-09-01T07:47:35.246Z,1019.65
2018-09-01T07:48:35.294Z,1019.66
2018-09-01T07:49:35.281Z,1019.64
2018-09-01T07:50:35.238Z,1019.65
2018-09-01T07:51:35.224Z,1019.62
2018-09-01T07:52:35.204Z,1019.61
2018-09-01T07:53:35.251Z,1019.60
2018-09-01T07:54:35.207Z,1019.60
2018-09-01T07:55:35.172Z,1019.62
2018-09-01T07:56:35.169Z,1019.66
2018-09-01T07:57:35.151Z,1019.64
2018-09-01T07:58:35.161Z,1019.60
2018-09-01T07:59:35.131Z,1019.64
2018-09-01T08:00:35.121Z,1019.66
2018-09-01T08:01:35.110Z,1019.65
2018-09-01T08:02:35.107Z,1019.67
2018-09-01T08:03:35.143Z,1019.66
2018-09-01T08:04:35.082Z,1019.67
2018-09-01T08:05:35.108Z,1019.69
2018-09-01T08:06:35.051Z,1019.69
2018-09-01T08:07:35.134Z,1019.71
2018-09-01T08:08:35.094Z,1019.75
2018-09-01T08:09:35.035Z,1019.77
2018-09-01T08:10:35.034Z,1019.77
2018-09-01T08:11:35.000Z,1019.77
2018-09-01T08:12:34.990Z,1019.77
2018-09-01T08:13:35.098Z,1019.75
2018-09-01T08:14:35.028Z,1019.78
2018-09-01T08:15:34.914Z,1019.76
2018-09-01T08:16:34.958Z,1019.77
2018-09-01T08:17:34.939Z,1019.80
2018-09-01T08:18:34.980Z,1019.75
2018-09-01T08:19:34.935Z,1019.78
2018-09-01T08:20:34.934Z,1019.76
2018-09-01T08:21:34.951Z,1019.77
2018-09-01T08:22:34.889Z,1019.81
2018-09-01T08:23:34.907Z,1019.83
2018-09-01T08:24:34.865Z,1019.88
2018-09-01T08:25:34.860Z,1019.92
2018-09-01T08:26:34.869Z,1019.89
2018-09-01T08:27:34.802Z,1019.91
2018-09-01T08:28:34.855Z,1019.92
2018-09-01T08:29:34.859Z,1019.91
2018-09-01T08:30:34.812Z,1019.90
2018-09-01T08:31:34.812Z,1019.92
2018-09-01T08:32:34.788Z,1019.95
2018-09-01T08:33:34.814Z,1019.91
2018-09-01T08:34:34.775Z,1019.95
2018-09-01T08:35:34.838Z,1019.90
2018-09-01T08:36:34.741Z,1020.00
2018-09-01T08:37:34.818Z,1019.96
2018-09-01T08:38:34.722Z,1019.95
2018-09-01T08:39:34.772Z,1019.99
2018-09-01T08:40:34.715Z,1019.94
2018-09-01T08:41:34.722Z,1019.97
2018-09-01T08:42:34.668Z,1020.04
2018-09-01T08:43:34.664Z,1020.01
2018-09-01T08:44:34.674Z,1020.04
2018-09-01T08:45:34.643Z,1020.04
2018-09-01T08:46:34.629Z,1020.03
2018-09-01T08:47:34.629Z,1020.04
2018-09-01T08:48:34.613Z,1020.07
2018-09-01T08:49:34.641Z,1020.05
2018-09-01T08:50:34.585Z,1020.06
2018-09-01T08:51:34.584Z,1020.04
2018-09-01T08:52:34.532Z,1020.09
2018-09-01T08:53:34.567Z,1020.08
2018-09-01T08:54:34.572Z,1020.07
2018-09-01T08:55:34.530Z,1020.11
2018-09-01T08:56:34.586Z,1020.08
2018-09-01T08:57:34.509Z,1020.15
2018-09-01T08:58:34.496Z,1020.14
2018-09-01T08:59:34.509Z,1020.19
2018-09-01T09:00:34.476Z,1020.18
2018-09-01T09:01:34.472Z,1020.22
2018-09-01T09:02:34.461Z,1020.18
2018-09-01T09:03:34.448Z,1020.16
2018-09-01T09:04:34.459Z,1020.21
2018-09-01T09:05:34.463Z,1020.16
2018-09-01T09:06:34.373Z,1020.23
2018-09-01T09:07:34.406Z,1020.21
2018-09-01T09:08:34.401Z,1020.21
2018-09-01T09:09:34.410Z,1020.21
2018-09-01T09:10:34.339Z,1020.17
2018-09-01T09:11:34.416Z,1020.24
2018-09-01T09:12:34.362Z,1020.18
2018-09-01T09:13:34.354Z,1020.18
2018-09-01T09:14:34.354Z,1020.21
2018-09-01T09:15:34.328Z,1020.20
2018-09-01T09:16:34.313Z,1020.22
2018-09-01T09:17:34.265Z,1020.21
2018-09-01T09:18:34.291Z,1020.27
2018-09-01T09:19:34.300Z,1020.17
2018-09-01T09:20:34.232Z,1020.18
2018-09-01T09:21:34.267Z,1020.11
2018-09-01T09:22:34.267Z,1020.10
2018-09-01T09:23:34.236Z,1020.17
2018-09-01T09:24:34.262Z,1020.15
2018-09-01T09:25:34.217Z,1020.12
2018-09-01T09:26:34.211Z,1020.13
2018-09-01T09:27:34.189Z,1020.09
2018-09-01T09:28:34.292Z,1020.09
2018-09-01T09:29:34.189Z,1020.05
2018-09-01T09:30:34.173Z,1020.04
2018-09-01T09:31:34.160Z,1020.01
2018-09-01T09:32:34.134Z,1020.01
2018-09-01T09:33:34.088Z,1020.02
2018-09-01T09:34:34.269Z,1020.04
2018-09-01T09:35:34.092Z,1020.04
2018-09-01T09:36:34.098Z,1020.00
2018-09-01T09:37:34.057Z,1019.98
2018-09-01T09:38:34.078Z,1019.97
2018-09-01T09:39:34.084Z,1019.95
2018-09-01T09:40:34.073Z,1019.95
2018-09-01T09:41:34.044Z,1019.98
2018-09-01T09:42:34.032Z,1020.01
2018-09-01T09:43:34.027Z,1019.97
2018-09-01T09:44:34.065Z,1019.95
2018-09-01T09:45:33.997Z,1019.93
2018-09-01T09:46:33.986Z,1019.99
2018-09-01T09:47:33.995Z,1019.97
2018-09-01T09:48:33.965Z,1019.95
2018-09-01T09:49:33.986Z,1019.95
2018-09-01T09:50:33.942Z,1019.94
2018-09-01T09:51:33.945Z,1019.94
2018-09-01T09:52:33.922Z,1019.99
2018-09-01T09:53:33.909Z,1019.95
2018-09-01T09:54:33.955Z,1019.96
2018-09-01T09:55:33.892Z,1019.90
2018-09-01T09:56:33.887Z,1019.91
2018-09-01T09:57:33.874Z,1019.94
2018-09-01T09:58:33.866Z,1019.90
2018-09-01T09:59:33.801Z,1019.93
2018-09-01T10:00:33.877Z,1019.88
2018-09-01T10:01:33.829Z,1019.84
2018-09-01T10:02:33.822Z,1019.85
2018-09-01T10:03:33.817Z,1019.81
2018-09-01T10:04:33.799Z,1019.83
2018-09-01T10:05:33.854Z,1019.85
2018-09-01T10:06:33.734Z,1019.79
2018-09-01T10:07:33.722Z,1019.82
2018-09-01T10:08:33.754Z,1019.82
2018-09-01T10:09:33.744Z,1019.79
2018-09-01T10:10:33.828Z,1019.79
2018-09-01T10:11:33.715Z,1019.75
2018-09-01T10:12:33.771Z,1019.78
2018-09-01T10:13:33.700Z,1019.76
2018-09-01T10:14:33.699Z,1019.75
2018-09-01T10:15:33.719Z,1019.72
2018-09-01T10:16:33.668Z,1019.71
2018-09-01T10:17:33.659Z,1019.68
2018-09-01T10:18:33.646Z,1019.74
2018-09-01T10:19:33.646Z,1019.67
2018-09-01T10:20:33.679Z,1019.68
2018-09-01T10:21:33.635Z,1019.72
2018-09-01T10:22:33.600Z,1019.71
2018-09-01T10:23:33.600Z,1019.75
2018-09-01T10:24:33.550Z,1019.75
2018-09-01T10:25:33.594Z,1019.75
2018-09-01T10:26:33.568Z,1019.78
2018-09-01T10:27:33.518Z,1019.79
2018-09-01T10:28:41.102Z,1019.72
2018-09-01T10:29:33.533Z,1019.69
2018-09-01T10:30:33.492Z,1019.67
2018-09-01T10:31:33.504Z,1019.59
2018-09-01T10:32:33.498Z,1019.66
2018-09-01T10:33:33.447Z,1019.74
2018-09-01T10:34:33.470Z,1019.64
2018-09-01T10:35:33.495Z,1019.70
2018-09-01T10:36:33.453Z,1019.70
2018-09-01T10:37:33.529Z,1019.69
2018-09-01T10:38:33.549Z,1019.68
2018-09-01T10:39:33.419Z,1019.66
2018-09-01T10:40:33.411Z,1019.68
2018-09-01T10:41:33.404Z,1019.61
2018-09-01T10:42:33.399Z,1019.62
2018-09-01T10:43:33.384Z,1019.57
2018-09-01T10:44:33.370Z,1019.53
2018-09-01T10:45:33.376Z,1019.56
2018-09-01T10:46:33.349Z,1019.49
2018-09-01T10:47:33.370Z,1019.41
2018-09-01T10:48:33.347Z,1019.44
2018-09-01T10:49:33.353Z,1019.39
2018-09-01T10:50:33.327Z,1019.42
2018-09-01T10:51:33.299Z,1019.43
2018-09-01T10:52:33.301Z,1019.44
2018-09-01T10:53:33.314Z,1019.38
2018-09-01T10:54:33.232Z,1019.38
2018-09-01T10:55:33.285Z,1019.35
2018-09-01T10:56:33.254Z,1019.32
2018-09-01T10:57:33.227Z,1019.33
2018-09-01T10:58:33.245Z,1019.33
2018-09-01T10:59:33.304Z,1019.34
2018-09-01T11:00:33.227Z,1019.38
2018-09-01T11:01:33.176Z,1019.35
2018-09-01T11:02:33.173Z,1019.42
2018-09-01T11:03:33.161Z,1019.35
2018-09-01T11:04:33.153Z,1019.35
2018-09-01T11:05:33.216Z,1019.37
2018-09-01T11:06:33.153Z,1019.38
2018-09-01T11:07:33.130Z,1019.35
2018-09-01T11:08:33.065Z,1019.34
2018-09-01T11:09:33.110Z,1019.38
2018-09-01T11:10:33.064Z,1019.44
2018-09-01T11:11:33.075Z,1019.32
2018-09-01T11:12:33.071Z,1019.35
2018-09-01T11:13:33.107Z,1019.28
2018-09-01T11:14:33.060Z,1019.35
2018-09-01T11:15:33.052Z,1019.35
2018-09-01T11:16:33.043Z,1019.33
2018-09-01T11:17:33.069Z,1019.38
2018-09-01T11:18:33.036Z,1019.40
2018-09-01T11:19:33.028Z,1019.33
2018-09-01T11:20:33.216Z,1019.34
2018-09-01T11:21:32.998Z,1019.38
2018-09-01T11:22:32.924Z,1019.34
2018-09-01T11:23:32.957Z,1019.34
2018-09-01T11:24:32.953Z,1019.28
2018-09-01T11:25:32.973Z,1019.27
2018-09-01T11:26:32.985Z,1019.24
2018-09-01T11:27:32.942Z,1019.26
2018-09-01T11:28:32.916Z,1019.27
2018-09-01T11:29:32.987Z,1019.23
2018-09-01T11:30:33.118Z,1019.25
2018-09-01T11:31:32.880Z,1019.24
2018-09-01T11:32:32.884Z,1019.19
2018-09-01T11:33:32.843Z,1019.22
2018-09-01T11:34:32.865Z,1019.22
2018-09-01T11:35:32.834Z,1019.20
2018-09-01T11:36:32.930Z,1019.20
2018-09-01T11:37:32.808Z,1019.16
2018-09-01T11:38:32.783Z,1019.14
2018-09-01T11:39:32.781Z,1019.15
2018-09-01T11:40:32.765Z,1019.13
2018-09-01T11:41:32.829Z,1019.09
2018-09-01T11:42:32.822Z,1019.07
2018-09-01T11:43:32.695Z,1019.04
2018-09-01T11:44:32.741Z,1019.02
2018-09-01T11:45:32.667Z,1019.00
2018-09-01T11:46:32.762Z,1019.00
2018-09-01T11:47:32.692Z,1018.98
2018-09-01T11:48:32.724Z,1018.95
2018-09-01T11:49:32.627Z,1018.94
2018-09-01T11:50:32.660Z,1018.96
2018-09-01T11:51:32.692Z,1019.00
2018-09-01T11:52:32.643Z,1019.02
2018-09-01T11:53:32.715Z,1019.10
2018-09-01T11:54:32.628Z,1019.04
2018-09-01T11:55:32.633Z,1019.05
2018-09-01T11:56:32.618Z,1019.08
2018-09-01T11:57:32.592Z,1019.07
2018-09-01T11:58:32.598Z,1019.05
2018-09-01T11:59:32.561Z,1019.07
2018-09-01T12:00:32.559Z,1019.07
2018-09-01T12:01:32.602Z,1019.09
2018-09-01T12:02:32.567Z,1019.06
2018-09-01T12:03:32.525Z,1019.06
2018-09-01T12:04:32.571Z,1019.00
2018-09-01T12:05:32.499Z,1019.02